createdAt,value
2022-10-24T00:01:18.614Z,3.41
2022-10-24T00:03:45.713Z,3.79
2022-10-24T00:06:14.666Z,3.17
2022-10-24T00:08:42.985Z,3.38
2022-10-24T00:11:14.891Z,3.63
2022-10-24T00:13:42.211Z,3.62
2022-10-24T00:16:10.243Z,3.47
2022-10-24T00:18:37.666Z,2.74
2022-10-24T00:21:05.652Z,2.86
2022-10-24T00:23:34.279Z,2.62
2022-10-24T00:26:02.724Z,2.37
2022-10-24T00:28:30.193Z,2.32
2022-10-24T00:30:59.157Z,2.26
2022-10-24T00:33:26.760Z,3.33
2022-10-24T00:35:53.763Z,3.24
2022-10-24T00:38:20.665Z,2.95
2022-10-24T00:40:51.380Z,3.27
2022-10-24T00:43:21.727Z,3.10
2022-10-24T00:45:50.648Z,3.16
2022-10-24T00:48:22.891Z,2.87
2022-10-24T00:50:52.436Z,2.61
2022-10-24T00:53:20.303Z,2.82
2022-10-24T00:55:49.553Z,2.76
2022-10-24T00:58:21.748Z,3.07
2022-10-24T01:00:49.082Z,2.92
2022-10-24T01:03:16.258Z,3.25
2022-10-24T01:05:57.908Z,3.73
2022-10-24T01:08:36.908Z,3.50
2022-10-24T01:11:15.766Z,3.24
2022-10-24T01:13:57.689Z,3.91
2022-10-24T01:16:29.868Z,3.82
2022-10-24T01:19:08.052Z,3.57
2022-10-24T01:21:37.495Z,3.27
2022-10-24T01:24:33.700Z,3.53
2022-10-24T01:27:31.161Z,3.39
2022-10-24T01:30:05.188Z,3.44
2022-10-24T01:32:48.713Z,2.91
2022-10-24T01:35:28.362Z,2.93
2022-10-24T01:38:02.087Z,3.02
2022-10-24T01:40:33.929Z,3.65
2022-10-24T01:43:09.244Z,3.41
2022-10-24T01:48:12.251Z,3.67
2022-10-24T01:50:41.802Z,3.68
2022-10-24T01:53:09.983Z,3.53
2022-10-24T01:55:39.100Z,3.42
2022-10-24T01:58:07.078Z,3.63
2022-10-24T02:00:35.830Z,3.76
2022-10-24T02:03:11.820Z,4.01
2022-10-24T02:05:46.131Z,4.03
2022-10-24T02:08:17.356Z,4.35
2022-10-24T02:10:48.629Z,3.92
2022-10-24T02:13:19.671Z,3.87
2022-10-24T02:15:52.327Z,3.65
2022-10-24T02:18:21.122Z,3.41
2022-10-24T02:20:55.600Z,3.53
2022-10-24T02:23:30.856Z,3.78
2022-10-24T02:26:04.749Z,3.64
2022-10-24T02:28:39.729Z,3.54
2022-10-24T02:31:11.367Z,3.58
2022-10-24T02:33:41.042Z,3.17
2022-10-24T02:36:12.210Z,3.47
2022-10-24T02:38:42.509Z,3.26
2022-10-24T02:41:13.090Z,3.29
2022-10-24T02:43:42.298Z,3.41
2022-10-24T02:46:12.392Z,3.31
2022-10-24T02:48:45.207Z,3.85
2022-10-24T02:51:14.256Z,3.91
2022-10-24T02:53:41.193Z,3.91
2022-10-24T02:56:08.154Z,4.05
2022-10-24T02:58:36.039Z,3.73
2022-10-24T03:01:03.041Z,4.39
2022-10-24T03:03:29.971Z,4.33
2022-10-24T03:06:00.432Z,3.90
2022-10-24T03:08:27.462Z,4.24
2022-10-24T03:10:54.397Z,4.73
2022-10-24T03:13:21.291Z,4.51
2022-10-24T03:18:16.073Z,4.18
2022-10-24T03:20:42.825Z,4.17
2022-10-24T03:23:11.078Z,4.62
2022-10-24T03:25:37.966Z,4.80
2022-10-24T03:28:05.454Z,5.10
2022-10-24T03:30:32.256Z,5.49
2022-10-24T03:33:00.258Z,4.46
2022-10-24T03:35:27.051Z,4.69
2022-10-24T03:37:54.356Z,4.66
2022-10-24T03:40:22.711Z,4.72
2022-10-24T03:42:49.538Z,4.26
2022-10-24T03:45:16.508Z,4.44
2022-10-24T03:47:44.532Z,4.30
2022-10-24T03:50:11.393Z,5.46
2022-10-24T03:52:38.256Z,4.64
2022-10-24T03:55:05.975Z,4.68
2022-10-24T03:57:34.980Z,5.11
2022-10-24T04:00:02.001Z,4.92
2022-10-24T04:02:28.782Z,5.71
2022-10-24T04:04:55.770Z,5.02
2022-10-24T04:07:25.075Z,4.86
2022-10-24T04:09:53.856Z,4.75
2022-10-24T04:12:20.629Z,5.14
2022-10-24T04:14:52.046Z,5.27
2022-10-24T04:17:19.227Z,5.00
2022-10-24T04:19:46.236Z,5.16
2022-10-24T04:22:13.056Z,4.61
2022-10-24T04:24:42.591Z,4.54
2022-10-24T04:27:09.535Z,5.29
2022-10-24T04:29:36.471Z,5.64
2022-10-24T04:32:04.950Z,5.49
2022-10-24T04:34:34.238Z,4.99
2022-10-24T04:37:01.098Z,6.12
2022-10-24T04:39:29.686Z,6.21
2022-10-24T04:41:56.634Z,5.65
2022-10-24T04:44:24.454Z,5.69
2022-10-24T04:46:51.747Z,6.27
2022-10-24T04:49:21.908Z,6.89
2022-10-24T04:51:48.907Z,6.27
2022-10-24T04:54:15.955Z,6.43
2022-10-24T04:56:42.727Z,5.67
2022-10-24T04:59:09.456Z,5.10
2022-10-24T05:01:36.866Z,4.77
2022-10-24T05:04:04.097Z,5.00
2022-10-24T05:06:33.932Z,5.69
2022-10-24T05:09:00.730Z,5.78
2022-10-24T05:11:27.803Z,5.46
2022-10-24T05:13:54.611Z,5.65
2022-10-24T05:16:21.907Z,5.33
2022-10-24T05:18:49.454Z,5.27
2022-10-24T05:21:18.566Z,4.68
2022-10-24T05:23:46.792Z,4.42
2022-10-24T05:26:14.816Z,4.85
2022-10-24T05:28:42.103Z,5.82
2022-10-24T05:31:11.419Z,5.29
2022-10-24T05:33:39.398Z,5.18
2022-10-24T05:36:08.133Z,5.47
2022-10-24T05:38:37.522Z,5.77
2022-10-24T05:41:06.963Z,5.38
2022-10-24T05:43:35.703Z,5.67
2022-10-24T05:46:02.872Z,5.04
2022-10-24T05:48:29.751Z,5.04
2022-10-24T05:50:59.476Z,4.77
2022-10-24T05:53:28.807Z,4.44
2022-10-24T05:55:56.348Z,4.68
2022-10-24T05:58:27.284Z,5.61
2022-10-24T06:00:54.549Z,6.06
2022-10-24T06:03:25.147Z,5.55
2022-10-24T06:05:51.962Z,5.57
2022-10-24T06:08:19.619Z,6.11
2022-10-24T06:10:49.011Z,6.47
2022-10-24T06:15:50.027Z,7.39
2022-10-24T06:18:17.673Z,6.37
2022-10-24T06:20:46.115Z,6.36
2022-10-24T06:23:13.119Z,6.03
2022-10-24T06:25:46.067Z,5.98
2022-10-24T06:28:12.850Z,5.90
2022-10-24T06:30:41.025Z,5.64
2022-10-24T06:33:10.180Z,4.79
2022-10-24T06:35:37.610Z,4.71
2022-10-24T06:38:04.565Z,4.37
2022-10-24T06:40:31.331Z,4.36
2022-10-24T06:45:40.330Z,4.71
2022-10-24T06:48:07.273Z,4.42
2022-10-24T06:50:36.896Z,4.29
2022-10-24T06:53:03.655Z,4.58
2022-10-24T06:55:30.650Z,3.95
2022-10-24T06:57:58.928Z,4.03
2022-10-24T07:02:55.644Z,3.65
2022-10-24T07:05:24.051Z,4.14
2022-10-24T07:07:52.786Z,4.34
2022-10-24T07:10:19.760Z,4.79
2022-10-24T07:12:47.844Z,3.89
2022-10-24T07:15:15.003Z,4.39
2022-10-24T07:17:43.298Z,4.28
2022-10-24T07:20:11.858Z,3.94
2022-10-24T07:22:39.943Z,4.09
2022-10-24T07:25:10.053Z,4.94
2022-10-24T07:27:37.503Z,4.88
2022-10-24T07:30:05.854Z,5.01
2022-10-24T07:32:37.103Z,4.20
2022-10-24T07:35:04.227Z,3.54
2022-10-24T07:37:31.429Z,3.20
2022-10-24T07:39:59.646Z,2.90
2022-10-24T07:42:30.442Z,2.51
2022-10-24T07:44:57.559Z,2.42
2022-10-24T07:47:27.773Z,2.89
2022-10-24T07:49:54.536Z,2.63
2022-10-24T07:52:21.757Z,2.42
2022-10-24T07:54:48.751Z,2.61
2022-10-24T07:57:15.606Z,2.57
2022-10-24T07:59:45.034Z,3.11
2022-10-24T08:02:12.681Z,2.92
2022-10-24T08:04:40.740Z,2.58
2022-10-24T08:07:13.780Z,2.67
2022-10-24T08:09:44.469Z,2.44
2022-10-24T08:12:11.722Z,2.92
2022-10-24T08:14:40.796Z,2.57
2022-10-24T08:17:11.747Z,2.44
2022-10-24T08:19:42.376Z,2.47
2022-10-24T08:22:11.062Z,2.24
2022-10-24T08:24:38.058Z,2.50
2022-10-24T08:27:04.802Z,2.58
2022-10-24T08:29:31.718Z,3.10
2022-10-24T08:31:58.772Z,2.96
2022-10-24T08:34:27.377Z,2.95
2022-10-24T08:36:54.594Z,2.47
2022-10-24T08:39:21.767Z,3.43
2022-10-24T08:41:54.548Z,3.17
2022-10-24T08:44:28.216Z,2.88
2022-10-24T08:47:03.334Z,2.65
2022-10-24T08:49:39.182Z,2.45
2022-10-24T08:52:16.605Z,2.23
2022-10-24T08:54:45.626Z,2.70
2022-10-24T08:57:19.838Z,2.52
2022-10-24T08:59:47.090Z,2.42
2022-10-24T09:02:20.321Z,2.35
2022-10-24T09:04:53.756Z,2.88
2022-10-24T09:07:22.174Z,2.46
2022-10-24T09:09:51.906Z,2.07
2022-10-24T09:12:20.905Z,1.91
2022-10-24T09:14:54.672Z,2.52
2022-10-24T09:17:23.511Z,2.24
2022-10-24T09:19:55.366Z,2.42
2022-10-24T09:22:23.539Z,2.68
2022-10-24T09:24:53.558Z,2.58
2022-10-24T09:27:23.885Z,2.52
2022-10-24T09:29:52.622Z,2.11
2022-10-24T09:32:21.866Z,2.04
2022-10-24T09:34:49.313Z,2.18
2022-10-24T09:37:37.600Z,2.36
2022-10-24T09:40:21.940Z,2.20
2022-10-24T09:42:53.861Z,1.72
2022-10-24T09:45:31.854Z,1.58
2022-10-24T09:48:03.527Z,1.83
2022-10-24T09:50:34.075Z,1.80
2022-10-24T09:53:05.104Z,1.79
2022-10-24T09:55:32.310Z,1.66
2022-10-24T09:58:00.616Z,1.65
2022-10-24T10:00:30.146Z,1.41
2022-10-24T10:03:02.320Z,1.35
2022-10-24T10:05:42.948Z,1.41
2022-10-24T10:08:16.234Z,1.63
2022-10-24T10:10:43.327Z,1.65
2022-10-24T10:13:25.287Z,1.89
2022-10-24T10:15:55.154Z,1.65
2022-10-24T10:18:27.884Z,1.99
2022-10-24T10:21:02.008Z,2.32
2022-10-24T10:26:05.975Z,2.24
2022-10-24T10:28:35.940Z,2.06
2022-10-24T10:31:03.821Z,1.64
2022-10-24T10:36:10.088Z,1.52
2022-10-24T10:39:07.602Z,1.74
2022-10-24T10:41:44.924Z,2.20
2022-10-24T10:44:32.755Z,2.10
2022-10-24T10:47:11.796Z,1.88
2022-10-24T10:49:41.484Z,1.66
2022-10-24T10:52:13.178Z,1.49
2022-10-24T10:55:07.131Z,1.56
2022-10-24T10:57:41.219Z,2.20
2022-10-24T11:02:55.751Z,1.96
2022-10-24T11:05:33.690Z,1.51
2022-10-24T11:08:17.321Z,1.65
2022-10-24T11:10:53.950Z,1.53
2022-10-24T11:13:26.951Z,1.56
2022-10-24T11:15:58.921Z,1.42
2022-10-24T11:18:35.332Z,1.47
2022-10-24T11:21:06.972Z,1.52
2022-10-24T11:23:39.110Z,1.37
2022-10-24T11:26:11.303Z,1.45
2022-10-24T11:28:44.510Z,1.81
2022-10-24T11:31:16.379Z,1.63
2022-10-24T11:33:47.677Z,1.84
2022-10-24T11:36:20.540Z,2.19
2022-10-24T11:38:56.512Z,2.09
2022-10-24T11:41:44.437Z,1.98
2022-10-24T11:44:23.247Z,1.85
2022-10-24T11:46:56.972Z,1.62
2022-10-24T11:49:30.798Z,1.49
2022-10-24T11:52:05.015Z,1.73
2022-10-24T11:54:36.857Z,1.76
2022-10-24T11:57:11.378Z,1.76
2022-10-24T11:59:43.229Z,1.97
2022-10-24T12:02:49.425Z,2.38
2022-10-24T12:05:26.877Z,2.73
2022-10-24T12:08:26.829Z,2.34
2022-10-24T12:11:08.813Z,2.28
2022-10-24T12:13:52.301Z,2.18
2022-10-24T12:16:32.102Z,2.55
2022-10-24T12:19:02.517Z,2.76
2022-10-24T12:21:37.364Z,2.50
2022-10-24T12:24:04.966Z,2.41
2022-10-24T12:26:33.613Z,2.43
2022-10-24T12:29:07.908Z,2.03
2022-10-24T12:34:40.063Z,2.03
2022-10-24T12:37:30.144Z,2.39
2022-10-24T12:39:59.386Z,2.50
2022-10-24T12:43:15.498Z,2.32
2022-10-24T12:45:45.241Z,2.19
2022-10-24T12:48:36.923Z,1.94
2022-10-24T12:51:28.440Z,2.12
2022-10-24T12:54:05.199Z,2.25
2022-10-24T12:56:34.963Z,2.25
2022-10-24T12:59:15.102Z,2.42
2022-10-24T13:01:45.869Z,2.05
2022-10-24T13:04:49.792Z,1.69
2022-10-24T13:07:38.413Z,1.71
2022-10-24T13:10:25.387Z,1.60
2022-10-24T13:15:49.012Z,1.07
2022-10-24T13:18:31.321Z,1.31
2022-10-24T13:21:28.795Z,1.27
2022-10-24T13:24:11.524Z,1.15
2022-10-24T13:26:40.989Z,1.01
2022-10-24T13:29:13.683Z,0.94
2022-10-24T13:31:45.177Z,0.99
2022-10-24T13:34:21.013Z,1.20
2022-10-24T13:36:52.015Z,1.01
2022-10-24T13:39:24.072Z,1.10
2022-10-24T13:41:58.383Z,1.03
2022-10-24T13:44:29.854Z,0.83
2022-10-24T13:47:03.667Z,1.00
2022-10-24T13:49:37.158Z,0.98
2022-10-24T13:52:13.747Z,1.13
2022-10-24T13:54:46.501Z,1.08
2022-10-24T13:57:27.908Z,1.28
2022-10-24T13:59:57.599Z,1.43
2022-10-24T14:02:29.910Z,1.26
2022-10-24T14:05:01.280Z,1.35
2022-10-24T14:07:32.775Z,1.36
2022-10-24T14:10:02.663Z,1.61
2022-10-24T14:12:33.020Z,1.45
2022-10-24T14:15:00.881Z,1.32
2022-10-24T14:17:30.458Z,1.26
2022-10-24T14:19:59.331Z,1.32
2022-10-24T14:22:30.107Z,2.20
2022-10-24T14:24:57.154Z,3.23
2022-10-24T14:27:24.545Z,2.57
2022-10-24T14:30:04.332Z,2.22
2022-10-24T14:32:31.842Z,2.25
2022-10-24T14:37:38.661Z,2.05
2022-10-24T14:40:15.022Z,3.01
2022-10-24T14:42:43.559Z,2.71
2022-10-24T14:45:23.982Z,2.41
2022-10-24T14:47:52.521Z,1.99
2022-10-24T14:50:41.240Z,1.87
2022-10-24T14:53:23.831Z,1.75
2022-10-24T14:55:53.734Z,1.78
2022-10-24T14:58:26.803Z,1.91
2022-10-24T15:00:55.526Z,2.71
2022-10-24T15:03:23.851Z,2.46
2022-10-24T15:05:58.496Z,2.24
2022-10-24T15:08:35.172Z,2.32
2022-10-24T15:11:15.301Z,2.52
2022-10-24T15:13:50.888Z,2.64
2022-10-24T15:16:27.339Z,2.83
2022-10-24T15:18:56.785Z,2.53
2022-10-24T15:21:26.624Z,2.81
2022-10-24T15:23:57.254Z,2.44
2022-10-24T15:26:27.431Z,2.64
2022-10-24T15:29:04.062Z,2.37
2022-10-24T15:31:34.407Z,2.38
2022-10-24T15:34:01.570Z,2.84
2022-10-24T15:36:31.759Z,2.74
2022-10-24T15:39:02.087Z,2.65
2022-10-24T15:41:29.227Z,2.31
2022-10-24T15:43:57.199Z,2.31
2022-10-24T15:46:26.245Z,2.28
2022-10-24T15:48:53.211Z,2.16
2022-10-24T15:51:23.307Z,2.29
2022-10-24T15:53:50.845Z,1.91
2022-10-24T15:56:19.379Z,2.17
2022-10-24T16:01:26.936Z,2.28
2022-10-24T16:03:54.293Z,2.51
2022-10-24T16:06:21.162Z,2.01
2022-10-24T16:08:50.449Z,2.49
2022-10-24T16:11:19.384Z,2.24
2022-10-24T16:13:49.630Z,2.44
2022-10-24T16:16:16.749Z,2.31
2022-10-24T16:18:48.643Z,2.64
2022-10-24T16:21:18.269Z,2.01
2022-10-24T16:23:45.543Z,2.41
2022-10-24T16:26:12.722Z,2.43
2022-10-24T16:28:42.766Z,2.60
2022-10-24T16:31:11.932Z,2.74
2022-10-24T16:33:40.011Z,2.14
2022-10-24T16:36:07.183Z,1.69
2022-10-24T16:38:34.319Z,1.92
2022-10-24T16:41:01.130Z,2.20
2022-10-24T16:43:28.523Z,1.87
2022-10-24T16:46:00.797Z,2.08
2022-10-24T16:48:27.805Z,2.07
2022-10-24T16:50:57.682Z,2.05
2022-10-24T16:53:24.744Z,2.09
2022-10-24T16:55:56.154Z,1.58
2022-10-24T16:58:23.425Z,1.30
2022-10-24T17:00:51.670Z,1.09
2022-10-24T17:03:19.795Z,0.99
2022-10-24T17:05:49.084Z,0.97
2022-10-24T17:08:15.954Z,1.20
2022-10-24T17:10:44.166Z,1.65
2022-10-24T17:13:11.015Z,2.11
2022-10-24T17:15:38.911Z,1.85
2022-10-24T17:18:06.173Z,1.78
2022-10-24T17:20:36.875Z,1.76
2022-10-24T17:23:06.364Z,1.80
2022-10-24T17:25:33.931Z,1.81
2022-10-24T17:28:00.967Z,1.76
2022-10-24T17:30:28.823Z,2.05
2022-10-24T17:32:59.019Z,2.12
2022-10-24T17:35:26.917Z,2.13
2022-10-24T17:38:07.092Z,2.38
2022-10-24T17:40:41.332Z,2.44
2022-10-24T17:43:20.255Z,2.32
2022-10-24T17:45:48.009Z,1.72
2022-10-24T17:48:16.551Z,1.66
2022-10-24T17:50:45.581Z,1.07
2022-10-24T17:53:17.377Z,0.86
2022-10-24T17:55:47.579Z,0.73
2022-10-24T17:58:18.696Z,0.48
2022-10-24T18:00:46.506Z,0.30
2022-10-24T18:03:14.463Z,0.21
2022-10-24T18:05:42.664Z,0.25
2022-10-24T18:08:14.555Z,0.13
2022-10-24T18:10:41.805Z,0.07
2022-10-24T18:13:09.348Z,0.04
2022-10-24T18:15:37.023Z,0.02
2022-10-24T18:18:04.484Z,0.01
2022-10-24T18:20:34.920Z,0.01
2022-10-24T18:23:03.256Z,0.00
2022-10-24T18:25:31.685Z,0.00
2022-10-24T18:27:58.798Z,0.00
2022-10-24T18:30:25.942Z,0.00
2022-10-24T18:32:52.899Z,0.00
2022-10-24T18:35:19.753Z,0.00
2022-10-24T18:37:46.712Z,0.00
2022-10-24T18:40:15.126Z,0.00
2022-10-24T18:42:51.763Z,0.00
2022-10-24T18:45:21.315Z,0.00
2022-10-24T18:47:49.305Z,0.00
2022-10-24T18:50:18.841Z,0.05
2022-10-24T18:52:51.911Z,0.16
2022-10-24T18:55:21.065Z,0.13
2022-10-24T18:57:51.400Z,0.07
2022-10-24T19:00:20.811Z,0.20
2022-10-24T19:03:06.003Z,0.11
2022-10-24T19:05:42.025Z,0.32
2022-10-24T19:08:13.569Z,0.22
2022-10-24T19:10:41.468Z,0.12
2022-10-24T19:13:11.648Z,0.06
2022-10-24T19:15:42.476Z,0.03
2022-10-24T19:18:12.163Z,0.02
2022-10-24T19:20:39.094Z,0.14
2022-10-24T19:23:06.079Z,0.07
2022-10-24T19:25:33.515Z,0.04
2022-10-24T19:28:04.302Z,0.02
2022-10-24T19:30:32.647Z,0.05
2022-10-24T19:32:59.390Z,0.03
2022-10-24T19:35:26.356Z,0.01
2022-10-24T19:37:53.500Z,0.01
2022-10-24T19:40:20.460Z,0.00
2022-10-24T19:42:47.296Z,0.05
2022-10-24T19:45:14.321Z,0.04
2022-10-24T19:47:42.805Z,0.11
2022-10-24T19:50:11.125Z,0.06
2022-10-24T19:52:38.188Z,0.03
2022-10-24T19:55:06.079Z,0.02
2022-10-24T19:57:33.091Z,0.01
2022-10-24T20:00:00.137Z,0.00
2022-10-24T20:02:26.894Z,0.00
2022-10-24T20:04:55.592Z,0.00
2022-10-24T20:07:22.603Z,0.00
2022-10-24T20:09:49.489Z,0.00
2022-10-24T20:12:16.738Z,0.00
2022-10-24T20:14:45.712Z,0.00
2022-10-24T20:17:14.036Z,0.00
2022-10-24T20:19:41.970Z,0.00
2022-10-24T20:22:12.710Z,0.00
2022-10-24T20:24:39.877Z,0.00
2022-10-24T20:29:38.447Z,0.00
2022-10-24T20:32:06.606Z,0.00
2022-10-24T20:34:36.441Z,0.00
2022-10-24T20:37:05.714Z,0.00
2022-10-24T20:39:33.973Z,0.00
2022-10-24T20:42:03.341Z,0.00
2022-10-24T20:44:31.612Z,0.00
2022-10-24T20:46:58.683Z,0.00
2022-10-24T20:49:25.755Z,0.00
2022-10-24T20:51:54.844Z,0.00
2022-10-24T20:54:21.711Z,0.00
2022-10-24T20:56:50.323Z,0.00
2022-10-24T20:59:21.346Z,0.00
2022-10-24T21:01:49.351Z,0.00
2022-10-24T21:04:20.775Z,0.00
2022-10-24T21:06:47.875Z,0.00
2022-10-24T21:09:15.003Z,0.00
2022-10-24T21:11:41.839Z,0.00
2022-10-24T21:14:12.832Z,0.00
2022-10-24T21:16:39.694Z,0.00
2022-10-24T21:19:07.726Z,0.00
2022-10-24T21:21:34.772Z,0.00
2022-10-24T21:24:04.445Z,0.00
2022-10-24T21:26:33.721Z,0.00
2022-10-24T21:29:08.911Z,0.00
2022-10-24T21:31:43.270Z,0.00
2022-10-24T21:34:11.953Z,0.00
2022-10-24T21:36:38.887Z,0.00
2022-10-24T21:39:05.910Z,0.00
2022-10-24T21:41:33.731Z,0.00
2022-10-24T21:44:00.711Z,0.00
2022-10-24T21:46:28.314Z,0.00
2022-10-24T21:48:57.312Z,0.00
2022-10-24T21:51:26.719Z,0.00
2022-10-24T21:53:55.419Z,0.00
2022-10-24T21:56:26.535Z,0.00
2022-10-24T21:58:55.073Z,0.00
2022-10-24T22:01:25.041Z,0.00
2022-10-24T22:03:52.475Z,0.00
2022-10-24T22:06:21.838Z,0.00
2022-10-24T22:08:49.695Z,0.00
2022-10-24T22:11:19.908Z,0.00
2022-10-24T22:13:47.075Z,0.00
2022-10-24T22:16:14.728Z,0.00
2022-10-24T22:18:41.893Z,0.00
2022-10-24T22:21:14.240Z,0.00
2022-10-24T22:23:42.482Z,0.00
2022-10-24T22:26:09.379Z,0.00
2022-10-24T22:28:36.434Z,0.00
2022-10-24T22:31:03.955Z,0.00
2022-10-24T22:33:34.335Z,0.00
2022-10-24T22:36:06.146Z,0.00
2022-10-24T22:38:35.644Z,0.00
2022-10-24T22:41:04.704Z,0.00
2022-10-24T22:43:32.251Z,0.05
2022-10-24T22:46:13.792Z,0.02
2022-10-24T22:48:45.163Z,0.01
2022-10-24T22:51:16.289Z,0.01
2022-10-24T22:53:43.648Z,0.00
2022-10-24T22:56:18.741Z,0.00
2022-10-24T22:58:46.091Z,0.00
2022-10-24T23:01:28.790Z,0.00
2022-10-24T23:04:03.317Z,0.00
2022-10-24T23:06:39.944Z,0.05
2022-10-24T23:09:06.803Z,0.02
2022-10-24T23:11:36.771Z,0.01
2022-10-24T23:14:04.631Z,0.01
2022-10-24T23:16:39.058Z,0.00
2022-10-24T23:21:45.604Z,0.00
2022-10-24T23:24:16.051Z,0.00
2022-10-24T23:26:55.428Z,0.03
2022-10-24T23:29:29.521Z,0.01
2022-10-24T23:31:58.307Z,0.01
2022-10-24T23:34:26.106Z,0.00
2022-10-24T23:36:58.456Z,0.00
2022-10-24T23:39:30.656Z,0.00
2022-10-24T23:41:59.697Z,0.00
2022-10-24T23:44:27.007Z,0.00
2022-10-24T23:47:00.818Z,0.00
2022-10-24T23:49:36.047Z,0.00
2022-10-24T23:52:12.036Z,0.00
2022-10-24T23:54:39.602Z,0.05
2022-10-24T23:57:15.065Z,0.02
2022-10-24T23:59:42.162Z,0.01
